createdAt,value
2019-03-25T00:04:21.829Z,8.80
2019-03-25T00:09:26.160Z,8.20
2019-03-25T00:14:30.501Z,8.00
2019-03-25T00:19:34.952Z,7.00
2019-03-25T00:24:39.358Z,6.60
2019-03-25T00:29:43.680Z,6.00
2019-03-25T00:34:47.995Z,7.60
2019-03-25T00:39:52.394Z,8.00
2019-03-25T00:44:56.720Z,6.75
2019-03-25T00:50:01.046Z,7.00
2019-03-25T00:55:05.488Z,5.50
2019-03-25T01:00:10.004Z,5.80
2019-03-25T01:05:14.432Z,5.60
2019-03-25T01:10:18.802Z,6.00
2019-03-25T01:15:23.113Z,7.75
2019-03-25T01:20:27.592Z,6.00
2019-03-25T01:25:31.900Z,6.00
2019-03-25T01:30:36.245Z,6.25
2019-03-25T01:35:40.583Z,6.00
2019-03-25T01:40:44.940Z,4.00
2019-03-25T01:45:49.238Z,5.00
2019-03-25T01:50:53.537Z,5.40
2019-03-25T01:55:57.922Z,5.00
2019-03-25T02:01:02.287Z,5.25
2019-03-25T02:06:06.583Z,4.00
2019-03-25T02:11:10.877Z,5.00
2019-03-25T02:16:15.373Z,5.00
2019-03-25T02:21:19.769Z,5.75
2019-03-25T02:26:24.183Z,5.75
2019-03-25T02:31:28.468Z,5.75
2019-03-25T02:36:32.800Z,5.00
2019-03-25T02:41:37.119Z,6.00
2019-03-25T02:46:41.477Z,5.00
2019-03-25T02:51:45.816Z,5.60
2019-03-25T02:56:50.141Z,5.00
2019-03-25T03:01:54.471Z,4.50
2019-03-25T03:06:58.828Z,4.00
2019-03-25T03:12:03.150Z,4.50
2019-03-25T03:17:07.488Z,4.00
2019-03-25T03:22:11.890Z,4.00
2019-03-25T03:27:16.293Z,4.00
2019-03-25T03:32:20.625Z,4.00
2019-03-25T03:37:24.911Z,5.00
2019-03-25T03:42:29.440Z,4.75
2019-03-25T03:47:33.856Z,5.00
2019-03-25T03:52:38.254Z,4.00
2019-03-25T03:57:43.290Z,4.50
2019-03-25T04:02:47.632Z,3.20
2019-03-25T04:07:52.087Z,4.00
2019-03-25T04:12:56.511Z,4.00
2019-03-25T04:18:00.966Z,4.00
2019-03-25T04:23:05.279Z,4.00
2019-03-25T04:28:09.574Z,4.20
2019-03-25T04:33:13.865Z,4.20
2019-03-25T04:38:18.168Z,3.25
2019-03-25T04:43:22.549Z,4.00
2019-03-25T04:48:26.980Z,4.00
2019-03-25T04:53:31.303Z,4.00
2019-03-25T04:58:35.701Z,4.00
2019-03-25T05:03:40.072Z,4.00
2019-03-25T05:08:44.350Z,4.80
2019-03-25T05:13:48.645Z,2.50
2019-03-25T05:18:52.955Z,4.00
2019-03-25T05:23:57.261Z,4.00
2019-03-25T05:29:01.567Z,3.00
2019-03-25T05:34:05.874Z,3.60
2019-03-25T05:39:10.496Z,4.00
2019-03-25T05:44:14.817Z,4.00
2019-03-25T05:49:19.237Z,3.50
2019-03-25T05:54:23.557Z,3.50
2019-03-25T05:59:27.964Z,3.00
2019-03-25T06:04:32.357Z,3.00
2019-03-25T06:09:36.736Z,4.00
2019-03-25T06:14:41.065Z,3.00
2019-03-25T06:19:45.380Z,3.00
2019-03-25T06:24:50.124Z,2.50
2019-03-25T06:29:54.484Z,3.00
2019-03-25T06:34:58.820Z,3.00
2019-03-25T06:40:03.163Z,4.00
2019-03-25T06:45:08.942Z,3.00
2019-03-25T06:50:13.375Z,3.80
2019-03-25T06:55:17.652Z,3.25
2019-03-25T07:00:22.020Z,3.00
2019-03-25T07:05:26.409Z,3.00
2019-03-25T07:10:35.141Z,2.75
2019-03-25T07:15:39.554Z,3.00
2019-03-25T07:20:43.879Z,3.00
2019-03-25T07:25:48.199Z,3.75
2019-03-25T07:30:52.702Z,2.00
2019-03-25T07:35:57.072Z,3.00
2019-03-25T07:41:01.387Z,9.75
2019-03-25T07:46:05.688Z,15.00
2019-03-25T07:51:10.477Z,14.75
2019-03-25T07:56:14.783Z,17.25
2019-03-25T08:01:19.403Z,14.25
2019-03-25T08:06:23.751Z,10.25
2019-03-25T08:11:28.271Z,10.75
2019-03-25T08:16:32.611Z,6.80
2019-03-25T08:21:36.924Z,7.00
2019-03-25T08:26:42.851Z,7.00
2019-03-25T08:31:47.480Z,6.00
2019-03-25T08:36:51.915Z,4.00
2019-03-25T08:41:56.175Z,5.00
2019-03-25T08:47:01.062Z,4.50
2019-03-25T08:52:05.394Z,4.75
2019-03-25T08:57:09.666Z,3.25
2019-03-25T09:02:14.055Z,3.80
2019-03-25T09:07:18.363Z,4.00
2019-03-25T09:12:22.721Z,4.20
2019-03-25T09:17:27.044Z,4.00
2019-03-25T09:22:31.324Z,3.00
2019-03-25T09:27:35.636Z,4.00
2019-03-25T09:32:39.919Z,3.00
2019-03-25T09:37:44.209Z,2.50
2019-03-25T09:42:48.526Z,3.00
2019-03-25T09:47:53.051Z,2.00
2019-03-25T09:52:57.429Z,2.00
2019-03-25T09:58:01.758Z,2.00
2019-03-25T10:03:06.043Z,2.40
2019-03-25T10:08:10.463Z,3.00
2019-03-25T10:13:14.950Z,2.00
2019-03-25T10:18:19.241Z,2.75
2019-03-25T10:23:23.574Z,3.00
2019-03-25T10:28:27.953Z,2.80
2019-03-25T10:33:32.246Z,3.00
2019-03-25T10:38:36.540Z,2.00
2019-03-25T10:43:40.850Z,3.40
2019-03-25T10:48:45.267Z,3.00
2019-03-25T10:53:49.556Z,3.50
2019-03-25T10:58:58.095Z,2.00
2019-03-25T11:03:59.949Z,4.00
2019-03-25T11:09:06.212Z,3.00
2019-03-25T11:14:10.499Z,2.00
2019-03-25T11:19:14.845Z,3.00
2019-03-25T11:24:19.127Z,2.00
2019-03-25T11:29:23.454Z,2.20
2019-03-25T11:34:27.745Z,2.40
2019-03-25T11:39:32.036Z,2.00
2019-03-25T11:44:36.346Z,2.00
2019-03-25T11:49:40.641Z,2.00
2019-03-25T11:54:45.053Z,2.50
2019-03-25T11:59:49.389Z,2.25
2019-03-25T12:04:53.711Z,1.80
2019-03-25T12:09:57.990Z,2.00
2019-03-25T12:15:02.503Z,3.00
2019-03-25T12:20:06.863Z,1.00
2019-03-25T12:25:11.245Z,1.00
2019-03-25T12:30:15.536Z,4.00
2019-03-25T12:35:19.833Z,5.00
2019-03-25T12:40:24.142Z,5.75
2019-03-25T12:45:28.611Z,5.80
2019-03-25T12:50:32.911Z,6.00
2019-03-25T12:55:38.095Z,6.00
2019-03-25T13:00:43.578Z,7.00
2019-03-25T13:05:48.175Z,9.00
2019-03-25T13:10:52.538Z,13.80
2019-03-25T13:15:56.885Z,13.25
2019-03-25T13:21:01.234Z,13.00
2019-03-25T13:26:05.522Z,15.00
2019-03-25T13:31:09.841Z,17.80
2019-03-25T13:36:14.159Z,18.20
2019-03-25T13:41:18.452Z,20.25
2019-03-25T13:46:22.868Z,21.75
2019-03-25T13:51:27.208Z,22.80
2019-03-25T13:56:31.545Z,27.80
2019-03-25T14:01:35.872Z,32.50
2019-03-25T14:06:40.213Z,47.00
2019-03-25T14:11:44.505Z,60.75
2019-03-25T14:16:48.876Z,57.75
2019-03-25T14:21:53.213Z,57.00
2019-03-25T14:26:57.666Z,56.75
2019-03-25T14:32:01.990Z,57.00
2019-03-25T14:37:06.299Z,56.40
2019-03-25T14:42:10.689Z,55.50
2019-03-25T14:47:15.011Z,54.00
2019-03-25T14:52:19.498Z,54.25
2019-03-25T14:57:26.363Z,54.00
2019-03-25T15:02:30.775Z,52.00
2019-03-25T15:07:35.094Z,50.00
2019-03-25T15:12:39.453Z,47.00
2019-03-25T15:17:43.834Z,46.00
2019-03-25T15:22:48.119Z,46.50
2019-03-25T15:27:52.445Z,46.25
2019-03-25T15:32:56.738Z,47.00
2019-03-25T15:38:01.060Z,46.25
2019-03-25T15:43:05.392Z,45.25
2019-03-25T15:48:09.770Z,44.50
2019-03-25T15:53:14.268Z,43.40
2019-03-25T15:58:26.109Z,44.40
2019-03-25T16:03:24.686Z,41.75
2019-03-25T16:08:29.012Z,40.50
2019-03-25T16:13:33.354Z,37.50
2019-03-25T16:18:41.684Z,39.80
2019-03-25T16:23:46.095Z,39.50
2019-03-25T16:28:50.433Z,39.75
2019-03-25T16:33:54.859Z,39.75
2019-03-25T16:38:59.314Z,38.25
2019-03-25T16:44:03.739Z,39.25
2019-03-25T16:49:08.217Z,39.00
2019-03-25T16:54:12.619Z,36.80
2019-03-25T16:59:17.021Z,37.25
2019-03-25T17:04:21.840Z,35.50
2019-03-25T17:09:26.340Z,35.60
2019-03-25T17:14:30.674Z,38.00
2019-03-25T17:19:33.792Z,34.80
2019-03-25T17:24:38.174Z,34.50
2019-03-25T17:29:42.501Z,32.25
2019-03-25T17:34:46.796Z,35.25
2019-03-25T17:39:51.100Z,34.75
2019-03-25T17:44:55.480Z,35.25
2019-03-25T17:49:59.803Z,34.00
2019-03-25T17:55:04.566Z,32.25
2019-03-25T18:00:10.181Z,33.20
2019-03-25T18:05:14.502Z,29.00
2019-03-25T18:10:18.833Z,30.40
2019-03-25T18:15:23.296Z,31.75
2019-03-25T18:20:27.721Z,29.00
2019-03-25T18:25:32.273Z,34.25
2019-03-25T18:30:36.992Z,29.60
2019-03-25T18:35:41.293Z,30.60
2019-03-25T18:40:45.603Z,29.00
2019-03-25T18:45:49.911Z,28.00
2019-03-25T18:50:54.226Z,27.00
2019-03-25T18:55:58.590Z,28.00
2019-03-25T19:01:03.013Z,29.25
2019-03-25T19:06:07.382Z,25.50
2019-03-25T19:11:11.795Z,25.00
2019-03-25T19:16:16.148Z,25.00
2019-03-25T19:21:20.483Z,27.00
2019-03-25T19:26:24.912Z,24.25
2019-03-25T19:31:29.523Z,24.25
2019-03-25T19:36:33.879Z,25.00
2019-03-25T19:41:38.287Z,24.00
2019-03-25T19:46:42.630Z,24.25
2019-03-25T19:51:47.001Z,22.20
2019-03-25T19:56:51.698Z,24.25
2019-03-25T20:01:56.158Z,22.50
2019-03-25T20:07:00.525Z,23.75
2019-03-25T20:12:04.962Z,22.00
2019-03-25T20:17:09.311Z,20.25
2019-03-25T20:22:13.664Z,21.00
2019-03-25T20:27:18.072Z,19.80
2019-03-25T20:33:34.501Z,20.60
2019-03-25T20:38:38.812Z,18.40
2019-03-25T20:43:43.139Z,19.50
2019-03-25T20:48:47.555Z,20.50
2019-03-25T20:53:51.895Z,18.20
2019-03-25T20:58:56.191Z,17.75
2019-03-25T21:04:00.615Z,21.00
2019-03-25T21:09:06.337Z,18.00
2019-03-25T21:14:10.686Z,17.80
2019-03-25T21:19:15.135Z,18.00
2019-03-25T21:24:19.590Z,18.00
2019-03-25T21:29:24.108Z,17.50
2019-03-25T21:34:28.465Z,16.00
2019-03-25T21:39:32.802Z,15.75
2019-03-25T21:44:37.314Z,17.00
2019-03-25T21:49:41.710Z,14.80
2019-03-25T21:54:46.095Z,16.00
2019-03-25T21:59:51.550Z,14.00
2019-03-25T22:04:57.179Z,17.00
2019-03-25T22:10:01.869Z,14.75
2019-03-25T22:15:09.206Z,14.60
2019-03-25T22:20:13.597Z,16.00
2019-03-25T22:25:17.946Z,15.40
2019-03-25T22:30:22.263Z,14.20
2019-03-25T22:35:26.600Z,14.50
2019-03-25T22:40:30.905Z,14.00
2019-03-25T22:45:35.183Z,13.25
2019-03-25T22:50:39.512Z,15.60
2019-03-25T22:55:43.795Z,13.00
2019-03-25T23:00:48.904Z,14.00
2019-03-25T23:05:53.241Z,13.25
2019-03-25T23:10:57.569Z,12.00
2019-03-25T23:16:01.873Z,13.00
2019-03-25T23:21:06.158Z,12.50
2019-03-25T23:26:10.474Z,14.25
2019-03-25T23:31:14.901Z,12.25
2019-03-25T23:36:19.236Z,13.60
2019-03-25T23:41:23.559Z,13.00
2019-03-25T23:46:27.837Z,11.25
2019-03-25T23:51:32.158Z,12.00
2019-03-25T23:56:36.434Z,13.50
